Time;durP1;ratioP1;P1;durP2;ratioP2;P2;SDS_P1;SDS_P2;PMS_P1;PMS_P2;Temp;Humidity;BMP_temperature;BMP_pressure;BME280_temperature;BME280_humidity;BME280_pressure;Samples;Min_cycle;Max_cycle;Signal;HPM_P1;HPM_P2
2022/11/28 00:01:52;;;;;;;147.07;86.70;;;;;;;;;;5088903;28;20172;-73
2022/11/28 00:04:18;;;;;;;148.30;85.17;;;;;;;;;;5087322;28;20649;-74
2022/11/28 00:06:45;;;;;;;189.90;94.63;;;;;;;;;;5087590;28;20226;-75
2022/11/28 00:09:11;;;;;;;195.77;98.67;;;;;;;;;;5087218;28;20184;-75
2022/11/28 00:11:42;;;;;;;162.10;87.73;;;;;;;;;;5087720;28;20188;-74
2022/11/28 00:14:08;;;;;;;147.60;87.73;;;;;;;;;;5087560;28;20207;-76
2022/11/28 00:16:34;;;;;;;170.63;93.57;;;;;;;;;;5090401;28;20168;-76
2022/11/28 00:19:00;;;;;;;160.57;89.33;;;;;;;;;;5086967;28;20181;-75
2022/11/28 00:21:26;;;;;;;142.50;82.63;;;;;;;;;;5087803;28;20177;-75
2022/11/28 00:23:52;;;;;;;150.80;84.97;;;;;;;;;;5087626;28;20574;-74
2022/11/28 00:26:22;;;;;;;156.07;85.30;;;;;;;;;;5088031;28;20173;-76
2022/11/28 00:28:48;;;;;;;163.93;92.73;;;;;;;;;;5088289;28;20259;-76
2022/11/28 00:31:19;;;;;;;144.87;84.03;;;;;;;;;;5090868;28;20181;-76
2022/11/28 00:33:45;;;;;;;138.67;83.10;;;;;;;;;;5091169;28;20700;-75
2022/11/28 00:36:12;;;;;;;141.77;85.93;;;;;;;;;;5091487;28;20185;-76
2022/11/28 00:38:38;;;;;;;145.90;84.13;;;;;;;;;;5091697;28;20180;-75
2022/11/28 00:41:09;;;;;;;166.90;91.23;;;;;;;;;;5091194;28;20191;-76
2022/11/28 00:43:35;;;;;;;166.27;92.33;;;;;;;;;;5091573;28;20231;-74
2022/11/28 00:46:01;;;;;;;156.10;89.80;;;;;;;;;;5090689;28;20195;-75
2022/11/28 00:48:28;;;;;;;152.70;89.20;;;;;;;;;;5090859;28;20273;-74
2022/11/28 00:50:54;;;;;;;137.10;83.43;;;;;;;;;;5088445;28;20184;-75
2022/11/28 00:53:21;;;;;;;172.43;91.13;;;;;;;;;;5091843;28;20189;-75
2022/11/28 00:55:47;;;;;;;150.93;88.23;;;;;;;;;;5093308;28;20529;-77
2022/11/28 00:58:13;;;;;;;147.73;84.23;;;;;;;;;;5089297;28;20248;-75
2022/11/28 01:00:39;;;;;;;177.13;92.40;;;;;;;;;;5090951;28;20184;-75
2022/11/28 01:03:05;;;;;;;172.87;91.83;;;;;;;;;;5091091;28;20310;-75
2022/11/28 01:05:31;;;;;;;145.77;87.73;;;;;;;;;;5090821;28;20241;-74
2022/11/28 01:07:57;;;;;;;134.40;81.03;;;;;;;;;;5093415;28;20636;-75
2022/11/28 01:10:23;;;;;;;147.00;83.27;;;;;;;;;;5090125;28;20180;-75
2022/11/28 01:12:49;;;;;;;191.40;97.37;;;;;;;;;;5090426;28;20702;-76
2022/11/28 01:15:15;;;;;;;167.23;91.53;;;;;;;;;;5090020;28;20204;-73
2022/11/28 01:17:41;;;;;;;164.63;93.37;;;;;;;;;;5090034;28;20268;-75
2022/11/28 01:20:08;;;;;;;161.53;89.93;;;;;;;;;;5090516;28;20169;-73
2022/11/28 01:22:34;;;;;;;145.20;85.67;;;;;;;;;;5089851;28;20269;-76
2022/11/28 01:25:00;;;;;;;180.37;95.07;;;;;;;;;;5090033;28;20180;-74
2022/11/28 01:27:26;;;;;;;176.07;93.57;;;;;;;;;;5090154;28;20189;-74
2022/11/28 01:29:52;;;;;;;151.07;89.43;;;;;;;;;;5090151;28;20267;-75
2022/11/28 01:32:18;;;;;;;183.17;96.73;;;;;;;;;;5090635;28;20260;-75
2022/11/28 01:34:44;;;;;;;151.03;85.20;;;;;;;;;;5089776;28;20535;-76
2022/11/28 01:37:10;;;;;;;153.63;86.10;;;;;;;;;;5090256;28;20240;-75
2022/11/28 01:39:37;;;;;;;176.17;95.03;;;;;;;;;;5090859;28;20267;-74
2022/11/28 01:42:03;;;;;;;167.63;91.73;;;;;;;;;;5087323;28;20291;-76
2022/11/28 01:44:29;;;;;;;200.87;101.53;;;;;;;;;;5089332;28;20193;-76
2022/11/28 01:46:55;;;;;;;176.73;93.53;;;;;;;;;;5091356;28;20175;-74
2022/11/28 01:49:29;;;;;;;170.20;90.37;;;;;;;;;;5090561;28;20595;-75
2022/11/28 01:51:57;;;;;;;167.57;91.00;;;;;;;;;;5090602;28;20212;-76
2022/11/28 01:54:24;;;;;;;192.93;96.53;;;;;;;;;;5085826;28;20213;-76
2022/11/28 01:57:01;;;;;;;161.10;91.80;;;;;;;;;;5090053;28;20184;-76
2022/11/28 01:59:30;;;;;;;173.43;93.73;;;;;;;;;;5087969;28;20184;-76
2022/11/28 02:01:56;;;;;;;153.27;85.47;;;;;;;;;;5091283;28;20283;-76
2022/11/28 02:04:22;;;;;;;171.60;93.90;;;;;;;;;;5090653;28;20275;-76
2022/11/28 02:06:48;;;;;;;147.13;84.63;;;;;;;;;;5090717;28;20187;-76
2022/11/28 02:09:15;;;;;;;160.67;86.73;;;;;;;;;;5090817;28;20180;-74
2022/11/28 02:12:06;;;;;;;178.40;91.43;;;;;;;;;;5090231;28;20187;-75
2022/11/28 02:14:38;;;;;;;161.47;90.73;;;;;;;;;;5090033;28;20743;-76
2022/11/28 02:17:23;;;;;;;163.00;90.07;;;;;;;;;;5092089;28;20255;-75
2022/11/28 02:19:54;;;;;;;188.80;90.63;;;;;;;;;;5090550;28;20176;-76
2022/11/28 02:22:20;;;;;;;178.00;93.27;;;;;;;;;;5089633;28;20680;-76
2022/11/28 02:25:00;;;;;;;138.20;80.20;;;;;;;;;;5098042;28;20191;-75
2022/11/28 02:30:50;;;;;;;165.57;88.90;;;;;;;;;;5094474;28;20207;-74
2022/11/28 02:33:16;;;;;;;182.07;91.67;;;;;;;;;;5101511;28;20188;-74
2022/11/28 02:36:02;;;;;;;162.97;90.30;;;;;;;;;;5088313;28;20208;-74
2022/11/28 02:38:31;;;;;;;139.10;80.43;;;;;;;;;;5085384;28;20223;-75
2022/11/28 02:41:00;;;;;;;201.20;94.83;;;;;;;;;;5087872;28;20173;-75
2022/11/28 02:43:45;;;;;;;168.93;88.87;;;;;;;;;;5091597;28;20193;-75
2022/11/28 02:46:26;;;;;;;160.67;88.30;;;;;;;;;;5089491;28;20187;-75
2022/11/28 02:48:54;;;;;;;193.70;96.77;;;;;;;;;;5092114;28;20246;-75
2022/11/28 02:51:24;;;;;;;173.90;91.53;;;;;;;;;;5087981;28;20370;-76
2022/11/28 02:53:51;;;;;;;189.77;93.87;;;;;;;;;;5088325;28;20184;-75
2022/11/28 02:56:17;;;;;;;138.60;80.63;;;;;;;;;;5089170;28;20220;-74
2022/11/28 02:58:43;;;;;;;155.70;85.53;;;;;;;;;;5090623;28;20200;-74
2022/11/28 03:01:14;;;;;;;199.27;97.87;;;;;;;;;;5089317;28;20212;-75
2022/11/28 03:03:46;;;;;;;152.00;84.27;;;;;;;;;;5088967;28;20242;-75
2022/11/28 03:06:16;;;;;;;149.00;83.90;;;;;;;;;;5086259;28;20869;-75
2022/11/28 03:09:01;;;;;;;140.90;81.97;;;;;;;;;;5086022;28;20187;-75
2022/11/28 03:11:33;;;;;;;162.23;87.83;;;;;;;;;;5095518;28;20168;-76
2022/11/28 03:14:08;;;;;;;163.03;89.57;;;;;;;;;;5083100;28;20180;-75
2022/11/28 03:16:57;;;;;;;142.70;82.40;;;;;;;;;;5080290;28;20220;-75
2022/11/28 03:19:30;;;;;;;186.60;91.43;;;;;;;;;;5024089;28;20198;-76
2022/11/28 03:22:19;;;;;;;153.83;85.37;;;;;;;;;;5010875;28;20194;-76
2022/11/28 03:24:48;;;;;;;168.30;89.87;;;;;;;;;;5027111;28;20197;-74
2022/11/28 03:27:32;;;;;;;156.63;84.70;;;;;;;;;;5011747;28;20186;-75
2022/11/28 03:30:15;;;;;;;164.67;86.43;;;;;;;;;;5011425;28;20226;-76
2022/11/28 03:32:43;;;;;;;145.47;83.80;;;;;;;;;;5011581;28;20702;-76
2022/11/28 03:35:11;;;;;;;143.27;80.40;;;;;;;;;;5027971;28;20643;-76
2022/11/28 03:37:39;;;;;;;164.57;83.20;;;;;;;;;;5028744;28;20803;-76
2022/11/28 03:40:09;;;;;;;167.03;85.60;;;;;;;;;;5028081;28;20631;-75
2022/11/28 03:42:37;;;;;;;156.13;84.53;;;;;;;;;;5010485;28;20202;-75
2022/11/28 03:45:09;;;;;;;153.87;79.63;;;;;;;;;;5011627;28;20286;-74
2022/11/28 03:47:38;;;;;;;148.27;80.63;;;;;;;;;;5027974;28;20632;-75
2022/11/28 03:50:06;;;;;;;173.33;85.83;;;;;;;;;;5011747;28;20190;-75
2022/11/28 03:58:47;;;;;;;167.20;85.40;;;;;;;;;;5085534;28;20594;-74
2022/11/28 04:01:16;;;;;;;161.63;81.93;;;;;;;;;;5089511;28;20187;-75
2022/11/28 04:09:54;;;;;;;177.90;88.60;;;;;;;;;;5085585;28;20196;-73
2022/11/28 04:12:20;;;;;;;164.13;80.97;;;;;;;;;;5080578;28;20276;-76
2022/11/28 04:14:49;;;;;;;174.53;85.87;;;;;;;;;;5090761;28;20271;-74
2022/11/28 04:17:30;;;;;;;136.30;75.57;;;;;;;;;;5089100;28;20530;-75
2022/11/28 04:20:03;;;;;;;150.10;81.40;;;;;;;;;;5089658;28;20229;-75
2022/11/28 04:22:43;;;;;;;183.53;88.10;;;;;;;;;;5092075;28;20311;-75
2022/11/28 04:25:12;;;;;;;137.20;74.47;;;;;;;;;;5084358;28;20193;-74
2022/11/28 04:27:39;;;;;;;140.30;78.77;;;;;;;;;;5084558;28;20470;-76
2022/11/28 04:30:06;;;;;;;156.80;81.40;;;;;;;;;;5089195;28;20181;-75
2022/11/28 04:32:34;;;;;;;132.33;75.13;;;;;;;;;;5091142;28;20191;-75
2022/11/28 04:35:04;;;;;;;139.33;77.00;;;;;;;;;;5078133;28;20576;-74
2022/11/28 04:37:32;;;;;;;143.67;77.57;;;;;;;;;;5079065;28;20189;-75
2022/11/28 04:39:59;;;;;;;151.57;80.33;;;;;;;;;;5078956;28;20192;-74
2022/11/28 04:42:55;;;;;;;157.63;83.27;;;;;;;;;;5080176;28;20298;-76
2022/11/28 04:45:28;;;;;;;152.73;82.77;;;;;;;;;;5063552;28;20553;-75
2022/11/28 04:47:54;;;;;;;134.60;72.57;;;;;;;;;;5090394;28;20189;-77
2022/11/28 04:50:21;;;;;;;135.40;77.00;;;;;;;;;;5084641;28;20180;-74
2022/11/28 04:52:54;;;;;;;154.20;78.73;;;;;;;;;;5086665;28;20184;-74
2022/11/28 04:55:29;;;;;;;173.77;85.10;;;;;;;;;;5080886;28;20181;-74
2022/11/28 04:58:04;;;;;;;154.13;79.23;;;;;;;;;;5086298;28;20660;-75
2022/11/28 05:00:32;;;;;;;144.87;76.03;;;;;;;;;;5089603;28;20180;-75
2022/11/28 05:02:58;;;;;;;139.77;77.60;;;;;;;;;;5089540;28;20303;-74
2022/11/28 05:05:27;;;;;;;131.60;73.00;;;;;;;;;;5091817;28;20169;-76
2022/11/28 05:07:53;;;;;;;140.53;74.60;;;;;;;;;;5077544;28;20200;-74
2022/11/28 05:10:19;;;;;;;167.57;82.27;;;;;;;;;;5088869;28;20637;-76
2022/11/28 05:12:45;;;;;;;115.73;69.80;;;;;;;;;;5088558;28;20215;-74
2022/11/28 05:15:17;;;;;;;134.27;74.03;;;;;;;;;;5092195;28;20176;-77
2022/11/28 05:17:43;;;;;;;122.93;70.60;;;;;;;;;;5089383;28;20273;-75
2022/11/28 05:20:10;;;;;;;140.03;75.67;;;;;;;;;;5089684;28;20777;-75
2022/11/28 05:22:36;;;;;;;111.17;63.03;;;;;;;;;;5090475;28;20703;-75
2022/11/28 05:25:02;;;;;;;156.93;79.53;;;;;;;;;;5091024;28;20185;-74
2022/11/28 05:27:28;;;;;;;140.43;70.27;;;;;;;;;;5087660;28;20208;-75
2022/11/28 05:29:54;;;;;;;137.60;71.87;;;;;;;;;;5077274;28;20185;-74
2022/11/28 05:32:20;;;;;;;145.47;75.27;;;;;;;;;;5090784;28;20199;-75
2022/11/28 05:34:46;;;;;;;131.43;70.93;;;;;;;;;;5087678;28;20791;-75
2022/11/28 05:37:12;;;;;;;143.17;73.23;;;;;;;;;;5081749;28;20664;-76
2022/11/28 05:39:38;;;;;;;153.17;75.43;;;;;;;;;;5080988;28;20242;-75
2022/11/28 05:42:04;;;;;;;122.77;68.87;;;;;;;;;;5090641;28;20184;-76
2022/11/28 05:44:30;;;;;;;156.97;74.63;;;;;;;;;;5075321;28;20256;-74
2022/11/28 05:46:56;;;;;;;118.93;67.80;;;;;;;;;;5076270;28;20725;-74
2022/11/28 05:49:24;;;;;;;144.80;76.60;;;;;;;;;;5083584;28;20206;-74
2022/11/28 05:51:50;;;;;;;141.43;71.63;;;;;;;;;;5090446;28;20641;-76
2022/11/28 05:54:16;;;;;;;123.17;68.30;;;;;;;;;;5087235;28;20211;-74
2022/11/28 05:56:42;;;;;;;115.13;64.70;;;;;;;;;;5088146;28;20246;-74
2022/11/28 05:59:08;;;;;;;130.73;69.63;;;;;;;;;;5059456;28;20180;-76
2022/11/28 06:01:34;;;;;;;106.70;63.50;;;;;;;;;;5081386;28;20245;-75
2022/11/28 06:04:00;;;;;;;119.20;66.17;;;;;;;;;;5082658;28;20642;-76
2022/11/28 06:06:30;;;;;;;117.23;69.17;;;;;;;;;;5087040;28;20180;-75
2022/11/28 06:08:56;;;;;;;128.67;68.93;;;;;;;;;;5086090;28;20185;-76
2022/11/28 06:11:24;;;;;;;134.07;69.90;;;;;;;;;;5088059;28;20176;-75
2022/11/28 06:13:50;;;;;;;116.83;64.20;;;;;;;;;;5089184;28;20246;-76
2022/11/28 06:16:17;;;;;;;117.40;66.50;;;;;;;;;;5087613;28;20184;-74
2022/11/28 06:18:44;;;;;;;113.23;63.20;;;;;;;;;;5085127;28;20261;-76
2022/11/28 06:21:11;;;;;;;117.53;66.63;;;;;;;;;;5085702;28;20184;-75
2022/11/28 06:23:38;;;;;;;139.50;72.97;;;;;;;;;;5087314;28;20608;-75
2022/11/28 06:26:05;;;;;;;130.57;70.70;;;;;;;;;;5086537;28;20176;-75
2022/11/28 06:28:31;;;;;;;130.80;72.20;;;;;;;;;;5085490;28;20184;-74
2022/11/28 06:30:57;;;;;;;150.97;75.73;;;;;;;;;;5087525;28;20782;-76
2022/11/28 06:33:23;;;;;;;142.57;71.13;;;;;;;;;;5084265;28;20266;-76
2022/11/28 06:35:49;;;;;;;136.53;72.53;;;;;;;;;;5088058;28;20185;-77
2022/11/28 06:38:15;;;;;;;148.07;76.77;;;;;;;;;;5087079;28;20533;-76
2022/11/28 06:40:41;;;;;;;115.00;65.27;;;;;;;;;;5085206;28;20172;-76
2022/11/28 06:43:07;;;;;;;140.63;71.80;;;;;;;;;;5086660;28;20211;-76
2022/11/28 06:45:34;;;;;;;115.93;64.47;;;;;;;;;;5086470;28;20180;-74
2022/11/28 06:48:00;;;;;;;115.23;66.97;;;;;;;;;;5086385;28;20177;-77
2022/11/28 06:50:26;;;;;;;121.90;68.07;;;;;;;;;;5088097;28;20576;-76
2022/11/28 06:52:54;;;;;;;115.13;68.67;;;;;;;;;;5086756;28;20193;-77
2022/11/28 06:55:20;;;;;;;118.87;66.97;;;;;;;;;;5085223;28;20241;-77
2022/11/28 06:57:46;;;;;;;135.33;72.73;;;;;;;;;;5086367;28;20189;-75
2022/11/28 07:00:12;;;;;;;122.03;69.27;;;;;;;;;;5086691;28;20191;-76
2022/11/28 07:02:38;;;;;;;126.53;69.73;;;;;;;;;;5086327;28;20538;-76
2022/11/28 07:05:04;;;;;;;146.77;74.20;;;;;;;;;;5087487;28;20590;-74
2022/11/28 07:07:30;;;;;;;107.83;61.27;;;;;;;;;;5086053;28;20192;-75
2022/11/28 07:09:56;;;;;;;115.40;63.87;;;;;;;;;;5086266;28;20184;-74
2022/11/28 07:12:22;;;;;;;124.10;68.67;;;;;;;;;;5086722;28;20550;-76
2022/11/28 07:14:48;;;;;;;120.43;64.70;;;;;;;;;;5086081;28;20174;-75
2022/11/28 07:17:14;;;;;;;117.00;65.20;;;;;;;;;;5087338;28;20272;-74
2022/11/28 07:19:40;;;;;;;119.63;68.43;;;;;;;;;;5085827;28;20667;-76
2022/11/28 07:22:06;;;;;;;105.80;61.47;;;;;;;;;;5085871;28;20266;-76
2022/11/28 07:24:32;;;;;;;94.37;57.70;;;;;;;;;;5086457;28;20193;-76
2022/11/28 07:26:58;;;;;;;114.43;65.30;;;;;;;;;;5084157;28;20185;-75
2022/11/28 07:29:29;;;;;;;114.73;64.47;;;;;;;;;;5087732;28;20187;-75
2022/11/28 07:31:55;;;;;;;106.17;62.63;;;;;;;;;;5086608;28;20183;-75
2022/11/28 07:34:21;;;;;;;109.63;62.43;;;;;;;;;;5086040;28;20191;-75
2022/11/28 07:36:47;;;;;;;96.27;58.60;;;;;;;;;;5086028;28;20188;-76
2022/11/28 07:39:16;;;;;;;114.33;62.17;;;;;;;;;;5088075;28;20700;-76
2022/11/28 07:41:42;;;;;;;107.33;62.53;;;;;;;;;;5091236;28;20177;-75
2022/11/28 07:44:09;;;;;;;103.50;59.57;;;;;;;;;;5091087;28;20215;-76
2022/11/28 07:46:35;;;;;;;105.53;62.27;;;;;;;;;;5089790;28;20192;-75
2022/11/28 07:49:01;;;;;;;111.07;63.87;;;;;;;;;;5090158;28;20275;-76
2022/11/28 07:51:29;;;;;;;122.33;67.83;;;;;;;;;;5090303;28;20633;-76
2022/11/28 07:53:55;;;;;;;111.47;63.63;;;;;;;;;;5091411;28;20197;-76
2022/11/28 07:56:23;;;;;;;112.63;64.03;;;;;;;;;;5079846;28;20936;-76
2022/11/28 07:58:49;;;;;;;108.40;61.50;;;;;;;;;;5091172;28;20994;-76
2022/11/28 08:01:17;;;;;;;113.77;63.03;;;;;;;;;;5092820;28;20184;-76
2022/11/28 08:03:43;;;;;;;110.23;62.77;;;;;;;;;;5091546;28;20239;-76
2022/11/28 08:06:09;;;;;;;110.70;60.90;;;;;;;;;;5084077;28;20224;-75
2022/11/28 08:08:36;;;;;;;103.87;58.93;;;;;;;;;;5088380;28;20220;-76
2022/11/28 08:11:03;;;;;;;113.17;61.47;;;;;;;;;;5090404;28;20588;-75
2022/11/28 08:13:29;;;;;;;109.70;62.57;;;;;;;;;;5092396;28;20196;-75
2022/11/28 08:15:55;;;;;;;109.37;60.97;;;;;;;;;;5091049;28;20264;-75
2022/11/28 08:18:22;;;;;;;115.10;63.20;;;;;;;;;;5099869;28;20212;-75
2022/11/28 08:20:48;;;;;;;113.07;60.73;;;;;;;;;;5088287;28;20180;-76
2022/11/28 08:23:14;;;;;;;117.70;62.20;;;;;;;;;;5090659;28;20254;-76
2022/11/28 08:25:40;;;;;;;125.47;65.27;;;;;;;;;;5089180;28;20188;-75
2022/11/28 08:28:06;;;;;;;100.37;58.67;;;;;;;;;;5089514;28;20249;-75
2022/11/28 08:30:32;;;;;;;110.10;60.33;;;;;;;;;;5089166;28;20633;-77
2022/11/28 08:32:58;;;;;;;96.07;58.90;;;;;;;;;;5088848;28;20223;-75
2022/11/28 08:35:24;;;;;;;104.83;59.70;;;;;;;;;;5091838;28;20172;-75
2022/11/28 08:37:50;;;;;;;114.30;62.60;;;;;;;;;;5088335;28;20807;-75
2022/11/28 08:40:16;;;;;;;115.37;62.73;;;;;;;;;;5088937;28;20180;-75
2022/11/28 08:42:42;;;;;;;102.60;58.10;;;;;;;;;;5088932;28;20208;-75
2022/11/28 08:45:10;;;;;;;111.60;60.67;;;;;;;;;;5089022;28;20743;-76
2022/11/28 08:47:36;;;;;;;95.00;55.93;;;;;;;;;;5087272;28;20165;-76
2022/11/28 08:50:02;;;;;;;105.50;57.57;;;;;;;;;;5088011;28;20180;-76
2022/11/28 08:52:28;;;;;;;101.73;56.40;;;;;;;;;;5088665;28;20253;-75
2022/11/28 08:54:54;;;;;;;97.93;53.47;;;;;;;;;;5088483;28;20196;-75
2022/11/28 08:57:20;;;;;;;96.83;56.20;;;;;;;;;;5089057;28;20196;-75
2022/11/28 08:59:46;;;;;;;100.50;57.10;;;;;;;;;;5087779;28;20180;-76
2022/11/28 09:02:12;;;;;;;92.33;54.53;;;;;;;;;;5090055;28;20632;-76
2022/11/28 09:04:38;;;;;;;97.47;52.40;;;;;;;;;;5088312;28;20552;-75
2022/11/28 09:07:04;;;;;;;95.40;54.73;;;;;;;;;;5088518;28;20634;-76
2022/11/28 09:09:30;;;;;;;88.03;52.17;;;;;;;;;;5088665;28;20191;-75
2022/11/28 09:11:56;;;;;;;90.57;52.10;;;;;;;;;;5088220;28;20173;-76
2022/11/28 09:14:22;;;;;;;86.67;52.43;;;;;;;;;;5090718;28;20562;-76
2022/11/28 09:16:49;;;;;;;94.80;52.53;;;;;;;;;;5087916;28;20185;-75
2022/11/28 09:19:15;;;;;;;83.20;50.30;;;;;;;;;;5088304;28;20192;-76
2022/11/28 09:21:41;;;;;;;90.57;51.03;;;;;;;;;;5087778;28;20185;-75
2022/11/28 09:24:07;;;;;;;89.80;51.77;;;;;;;;;;5086750;28;20656;-76
2022/11/28 09:26:33;;;;;;;84.67;49.83;;;;;;;;;;5089178;28;20172;-76
2022/11/28 09:29:00;;;;;;;92.60;51.33;;;;;;;;;;5088350;28;20184;-75
2022/11/28 09:31:26;;;;;;;81.93;46.10;;;;;;;;;;5089112;28;20188;-75
2022/11/28 09:33:52;;;;;;;73.77;44.43;;;;;;;;;;5087669;28;20199;-75
2022/11/28 09:36:20;;;;;;;70.90;44.37;;;;;;;;;;5087859;28;20532;-75
2022/11/28 09:38:46;;;;;;;73.53;45.67;;;;;;;;;;5087598;28;20271;-75
2022/11/28 09:41:28;;;;;;;77.20;46.37;;;;;;;;;;5088838;28;20208;-75
2022/11/28 09:43:56;;;;;;;79.10;45.73;;;;;;;;;;5087589;28;20215;-75
2022/11/28 09:46:26;;;;;;;68.90;42.93;;;;;;;;;;5087406;28;20173;-75
2022/11/28 09:48:55;;;;;;;66.37;41.30;;;;;;;;;;5087606;28;20332;-75
2022/11/28 09:51:30;;;;;;;74.47;44.27;;;;;;;;;;5087755;28;20724;-75
2022/11/28 09:54:15;;;;;;;71.23;42.40;;;;;;;;;;5086818;28;20182;-74
2022/11/28 09:56:41;;;;;;;68.53;41.50;;;;;;;;;;5088503;28;20625;-76
2022/11/28 09:59:16;;;;;;;71.40;42.77;;;;;;;;;;5087615;28;20253;-74
2022/11/28 10:02:00;;;;;;;74.23;42.77;;;;;;;;;;5086268;28;20188;-75
2022/11/28 10:04:41;;;;;;;68.70;41.47;;;;;;;;;;5087866;28;20196;-74
2022/11/28 10:07:19;;;;;;;65.27;39.97;;;;;;;;;;5087614;28;20185;-75
2022/11/28 10:10:00;;;;;;;66.70;40.97;;;;;;;;;;5087044;28;20551;-75
2022/11/28 10:12:29;;;;;;;67.67;38.87;;;;;;;;;;5083414;28;20188;-75
2022/11/28 10:15:14;;;;;;;65.40;39.10;;;;;;;;;;5072551;28;20605;-74
2022/11/28 10:17:49;;;;;;;57.63;36.57;;;;;;;;;;5083359;28;20242;-75
2022/11/28 10:20:15;;;;;;;54.33;35.63;;;;;;;;;;5078391;28;20176;-76
2022/11/28 10:22:45;;;;;;;57.10;34.07;;;;;;;;;;5078837;28;20720;-75
2022/11/28 10:25:20;;;;;;;58.93;35.30;;;;;;;;;;5082025;28;20297;-75
2022/11/28 10:27:46;;;;;;;60.60;36.37;;;;;;;;;;5088861;28;20244;-74
2022/11/28 10:30:23;;;;;;;55.33;35.33;;;;;;;;;;5089938;28;20187;-75
2022/11/28 10:32:58;;;;;;;54.60;34.50;;;;;;;;;;5088238;28;20187;-75
2022/11/28 10:35:27;;;;;;;50.57;33.57;;;;;;;;;;5082969;28;20184;-75
2022/11/28 10:37:53;;;;;;;49.10;32.53;;;;;;;;;;5066341;28;20714;-74
2022/11/28 10:40:26;;;;;;;53.00;34.80;;;;;;;;;;5075949;28;20604;-74
2022/11/28 10:43:01;;;;;;;53.67;35.03;;;;;;;;;;5076796;28;20213;-76
2022/11/28 10:45:31;;;;;;;52.30;32.73;;;;;;;;;;5068657;28;20180;-76
2022/11/28 10:48:07;;;;;;;57.43;35.60;;;;;;;;;;5066299;28;20204;-75
2022/11/28 10:50:57;;;;;;;59.87;36.47;;;;;;;;;;5081637;28;20392;-76
2022/11/28 10:53:26;;;;;;;54.80;34.17;;;;;;;;;;5076117;28;20223;-75
2022/11/28 10:56:12;;;;;;;57.37;35.33;;;;;;;;;;5085898;28;20192;-76
2022/11/28 10:58:48;;;;;;;51.77;33.53;;;;;;;;;;5066901;28;20207;-76
2022/11/28 11:01:14;;;;;;;50.27;33.27;;;;;;;;;;5086810;28;20206;-74
2022/11/28 11:03:40;;;;;;;50.80;33.33;;;;;;;;;;5086561;28;20219;-74
2022/11/28 11:06:06;;;;;;;51.70;33.70;;;;;;;;;;5085346;28;20192;-76
2022/11/28 11:08:36;;;;;;;45.67;31.53;;;;;;;;;;5089101;28;20215;-74
2022/11/28 11:11:22;;;;;;;46.47;29.87;;;;;;;;;;5086334;28;20241;-75
2022/11/28 11:13:56;;;;;;;39.90;27.67;;;;;;;;;;5085783;28;20196;-75
2022/11/28 11:16:22;;;;;;;44.23;28.77;;;;;;;;;;5085185;28;20184;-76
2022/11/28 11:18:48;;;;;;;43.50;29.63;;;;;;;;;;5082947;28;20276;-77
2022/11/28 11:21:19;;;;;;;42.97;29.17;;;;;;;;;;5084978;28;20267;-75
2022/11/28 11:23:46;;;;;;;43.70;28.67;;;;;;;;;;5085541;28;20726;-75
2022/11/28 11:26:25;;;;;;;49.47;32.00;;;;;;;;;;5085636;28;20196;-76
2022/11/28 11:28:51;;;;;;;46.03;31.47;;;;;;;;;;5080940;28;20188;-75
2022/11/28 11:31:20;;;;;;;50.87;32.03;;;;;;;;;;5085510;28;20180;-75
2022/11/28 11:33:47;;;;;;;48.80;33.37;;;;;;;;;;5086328;28;20184;-76
2022/11/28 11:36:33;;;;;;;51.17;32.10;;;;;;;;;;5084680;28;20210;-74
2022/11/28 11:39:11;;;;;;;46.40;31.03;;;;;;;;;;5085253;28;20168;-76
2022/11/28 11:41:38;;;;;;;42.97;28.30;;;;;;;;;;5086540;28;20581;-76
2022/11/28 11:44:13;;;;;;;36.23;26.00;;;;;;;;;;5085979;28;20208;-76
2022/11/28 11:46:51;;;;;;;35.67;25.63;;;;;;;;;;5085718;28;21037;-76
2022/11/28 11:49:31;;;;;;;37.43;25.63;;;;;;;;;;5080912;28;20192;-76
2022/11/28 11:52:02;;;;;;;36.40;26.07;;;;;;;;;;5084834;28;20172;-76
2022/11/28 11:54:28;;;;;;;36.00;26.23;;;;;;;;;;5082057;28;20276;-76
2022/11/28 11:56:55;;;;;;;40.87;29.63;;;;;;;;;;5085750;28;20337;-76
2022/11/28 11:59:24;;;;;;;41.87;28.83;;;;;;;;;;5082233;28;20206;-76
2022/11/28 12:01:54;;;;;;;40.07;27.40;;;;;;;;;;5086289;28;20317;-76
2022/11/28 12:04:32;;;;;;;35.77;26.93;;;;;;;;;;5085219;28;20291;-75
2022/11/28 12:07:00;;;;;;;37.83;27.63;;;;;;;;;;5095253;28;20210;-75
2022/11/28 12:09:43;;;;;;;36.47;27.67;;;;;;;;;;5085108;28;20692;-75
2022/11/28 12:12:18;;;;;;;35.33;26.43;;;;;;;;;;5100305;28;20172;-75
2022/11/28 12:14:46;;;;;;;34.63;26.93;;;;;;;;;;5084577;28;20177;-75
2022/11/28 12:17:29;;;;;;;40.10;29.80;;;;;;;;;;5102945;28;20180;-75
2022/11/28 12:20:11;;;;;;;47.43;34.27;;;;;;;;;;5094850;28;20220;-74
2022/11/28 12:23:09;;;;;;;47.13;33.90;;;;;;;;;;5096967;28;20707;-75
2022/11/28 12:25:44;;;;;;;44.70;31.33;;;;;;;;;;5041700;28;20258;-75
2022/11/28 12:28:26;;;;;;;45.27;31.43;;;;;;;;;;5045252;28;20185;-75
2022/11/28 12:31:10;;;;;;;46.80;30.73;;;;;;;;;;5026396;28;20174;-76
2022/11/28 12:33:39;;;;;;;43.00;29.03;;;;;;;;;;5031275;28;20182;-76
2022/11/28 12:36:38;;;;;;;48.37;30.20;;;;;;;;;;5029656;28;20178;-76
2022/11/28 12:39:13;;;;;;;48.83;30.43;;;;;;;;;;5002156;28;20195;-76
2022/11/28 12:41:58;;;;;;;47.47;31.50;;;;;;;;;;4988675;28;20213;-75
2022/11/28 12:44:27;;;;;;;50.50;32.13;;;;;;;;;;4988661;28;20259;-76
2022/11/28 12:47:05;;;;;;;49.33;30.97;;;;;;;;;;4984281;28;20193;-76
2022/11/28 12:49:41;;;;;;;41.93;27.30;;;;;;;;;;4975817;28;20205;-76
2022/11/28 12:52:10;;;;;;;45.70;28.70;;;;;;;;;;4981803;28;20192;-77
2022/11/28 12:54:52;;;;;;;48.97;31.37;;;;;;;;;;4991811;28;21001;-76
2022/11/28 12:57:27;;;;;;;50.50;31.40;;;;;;;;;;4975356;28;20188;-76
2022/11/28 12:59:53;;;;;;;42.97;28.93;;;;;;;;;;4993194;28;20254;-75
2022/11/28 13:02:28;;;;;;;47.13;28.93;;;;;;;;;;5019772;28;20721;-76
2022/11/28 13:05:09;;;;;;;47.17;28.40;;;;;;;;;;5036460;28;20189;-77
2022/11/28 13:08:10;;;;;;;51.67;31.60;;;;;;;;;;5026170;28;20296;-76
2022/11/28 13:10:55;;;;;;;52.10;31.80;;;;;;;;;;4952452;28;20180;-77
2022/11/28 13:13:21;;;;;;;53.77;32.73;;;;;;;;;;4966514;28;20680;-76
2022/11/28 13:15:55;;;;;;;45.07;29.33;;;;;;;;;;4984106;28;20283;-76
2022/11/28 13:18:40;;;;;;;43.70;28.43;;;;;;;;;;4992099;28;20574;-76
2022/11/28 13:21:12;;;;;;;46.83;29.27;;;;;;;;;;5010072;28;20183;-76
2022/11/28 13:23:38;;;;;;;45.67;30.20;;;;;;;;;;5009689;28;20262;-76
2022/11/28 13:26:04;;;;;;;45.77;29.40;;;;;;;;;;5005383;28;20219;-77
2022/11/28 13:28:53;;;;;;;46.80;29.40;;;;;;;;;;5009207;28;20187;-75
2022/11/28 13:31:25;;;;;;;43.30;28.23;;;;;;;;;;5008856;28;20652;-76
2022/11/28 13:33:57;;;;;;;42.83;28.37;;;;;;;;;;5008888;28;20730;-76
2022/11/28 13:36:25;;;;;;;53.60;30.37;;;;;;;;;;4993849;28;20182;-76
2022/11/28 13:38:51;;;;;;;53.27;33.07;;;;;;;;;;5010974;28;20267;-77
2022/11/28 13:41:21;;;;;;;58.60;35.53;;;;;;;;;;5007088;28;20261;-76
2022/11/28 13:44:00;;;;;;;62.87;36.63;;;;;;;;;;5023523;28;20235;-76
2022/11/28 13:46:26;;;;;;;61.80;34.90;;;;;;;;;;5079461;28;20189;-75
2022/11/28 13:48:58;;;;;;;57.70;32.60;;;;;;;;;;5088901;28;20222;-75
2022/11/28 13:51:25;;;;;;;57.83;34.23;;;;;;;;;;5087840;28;20702;-75
2022/11/28 13:54:14;;;;;;;55.57;32.67;;;;;;;;;;5091691;28;20180;-76
2022/11/28 13:56:41;;;;;;;58.53;34.27;;;;;;;;;;5078543;28;20230;-76
2022/11/28 13:59:16;;;;;;;61.50;35.57;;;;;;;;;;5090641;28;20599;-76
2022/11/28 14:01:42;;;;;;;62.60;35.47;;;;;;;;;;5090687;28;20208;-74
2022/11/28 14:04:15;;;;;;;63.20;35.27;;;;;;;;;;5087859;28;20236;-76
2022/11/28 14:06:44;;;;;;;60.07;34.53;;;;;;;;;;5083004;28;20183;-75
2022/11/28 14:09:16;;;;;;;68.63;36.03;;;;;;;;;;5074952;28;20518;-76
2022/11/28 14:11:57;;;;;;;68.97;36.00;;;;;;;;;;5076864;28;20177;-74
2022/11/28 14:14:29;;;;;;;70.87;36.50;;;;;;;;;;5079147;28;20184;-76
2022/11/28 14:16:55;;;;;;;65.37;34.10;;;;;;;;;;5085822;28;20184;-76
2022/11/28 14:19:26;;;;;;;64.97;35.60;;;;;;;;;;5094254;28;20200;-75
2022/11/28 14:22:04;;;;;;;64.40;34.83;;;;;;;;;;5074140;28;20687;-77
2022/11/28 14:24:33;;;;;;;65.23;34.47;;;;;;;;;;5088749;28;20343;-75
2022/11/28 14:27:00;;;;;;;64.10;35.80;;;;;;;;;;5076510;28;20204;-77
2022/11/28 14:29:31;;;;;;;68.23;36.90;;;;;;;;;;5075940;28;20185;-74
2022/11/28 14:31:57;;;;;;;69.33;35.60;;;;;;;;;;5084723;28;20183;-74
2022/11/28 14:34:40;;;;;;;66.77;36.50;;;;;;;;;;5087039;28;20200;-75
2022/11/28 14:37:24;;;;;;;67.60;34.47;;;;;;;;;;5077219;28;20757;-75
2022/11/28 14:39:51;;;;;;;66.60;34.73;;;;;;;;;;5071400;28;20185;-75
2022/11/28 14:42:17;;;;;;;72.67;35.37;;;;;;;;;;5086476;28;20221;-74